Terminal Aerodrome Forecast
Issued by NWS

Home | Current Version | Previous Version | Text Only | Print | Product List | Glossary On
Versions: 1 2 3 4 5 6 7 8 9 10 11 12 13 14 15 16 17 18 19 20 21 22 23 24 25 26 27 28 29 30 31 32 33 34 35
025
FTUS41 KOKX 022341
TAFSWF
TAF
KSWF 022341Z 0300/0406 29010KT P6SM SCT050
     FM030900 29012KT P6SM SCT040
     FM031400 30017G26KT P6SM BKN040
     FM032200 31014G22KT P6SM SCT040
      AMD NOT SKED=

USA.gov is the U.S. government's official web portal to all federal, state and local government web resources and services.